• Join FlightAware (Why Join?)
  • Login
  • US Flag 
05:29PM EDT


 

Airport Tracker/Info


-or-


 

Live Flight TrackerFlight Track Log ✈ N6045S ✈ 21-Jun-2013 ✈ KRME - KBLM

Flight Track Log - Related Links

Times and Time Zones

All times are in EDT time to prevent confusion due to time zone crossing. See the N6045S flight status page for this flight to view local times or setup timezone preferences in your user account.

Time Position Orientation Groundspeed Altitude Reporting Facility
EDT Latitude Longitude Course Direction KTS MPH feet Rate Location/Type
07:21AM 43.2550 -75.4450 298° West 173 199 1,500  Level Boston Center
07:21AM 43.2628 -75.4653 298° West 154 177 2,400 1,620 Climbing Boston Center
07:22AM 43.2331 -75.4808 201° Southwest 168 193 3,500 1,440 Climbing Boston Center
07:23AM 43.1756 -75.4497 158° South 179 206 5,300 1,320 Climbing Boston Center
07:24AM 43.1261 -75.4244 160° South 179 206 6,600 1,380 Climbing Boston Center
07:25AM 43.0767 -75.4022 162° South 185 213 8,100 1,380 Climbing Boston Center
07:26AM 43.0253 -75.3797 162° South 185 213 9,400 1,200 Climbing Boston Center
07:27AM 42.9778 -75.3578 161° South 185 213 10,600 1,140 Climbing Boston Center
07:28AM 42.9283 -75.3353 162° South 185 213 11,700 1,080 Climbing Boston Center
07:29AM 42.8789 -75.3133 162° South 185 213 12,800 900 Climbing Boston Center
07:30AM 42.8294 -75.2883 160° South 185 213 13,500 300 Climbing Boston Center
07:32AM 42.7697 -75.2628 163° South 197 227 13,500  Level Boston Center
07:33AM 42.6892 -75.2281 162° South 236 272 13,500  Level Boston Center
07:34AM 42.6214 -75.1914 158° South 256 295 13,500  Level Boston Center
07:35AM 42.5511 -75.1628 163° South 266 306 13,500  Level Boston Center
07:36AM 42.4933 -75.1378 162° South 266 306 13,500  Level Boston Center
07:37AM 42.4108 -75.1003 161° South 261 300 13,500  Level Boston Center
07:38AM 42.3408 -75.0692 162° South 261 300 13,500  Level Boston Center
07:39AM 42.2728 -75.0383 161° South 261 300 13,500  Level Boston Center
07:40AM 42.2025 -75.0047 160° South 261 300 13,500  Level Boston Center
07:41AM 42.1325 -74.9739 162° South 261 300 13,500  Level Boston Center
07:42AM 42.0683 -74.9431 160° South 261 300 13,500  Level Boston Center
07:43AM 41.9983 -74.9125 162° South 261 300 13,600  Climbing Boston Center
07:44AM 41.9219 -74.8761 160° South 261 300 13,600  Level Boston Center
07:45AM 41.8600 -74.8514 163° South 261 300 13,600 -60 Level Boston Center
07:47AM 41.7264 -74.7897 161° South 262 302 13,500 -60 Descending New York Center
07:48AM 41.6483 -74.7547 161° South 262 302 13,500  Level New York Center
07:49AM 41.5869 -74.7261 161° South 262 302 13,500  Level New York Center
07:50AM 41.5089 -74.6936 163° South 262 302 13,500  Level New York Center
07:51AM 41.4494 -74.6653 160° South 262 302 13,500  Level New York Center
07:52AM 41.3714 -74.6331 163° South 262 302 13,500  Level New York Center
07:53AM 41.3097 -74.6047 161° South 262 302 13,500  Level New York Center
07:54AM 41.2336 -74.5728 162° South 262 302 13,600  Climbing New York Center
07:54AM 41.1667 -74.5500 166° South 265 305 13,600  Level New York TRACON
07:55AM 41.1000 -74.5167 159° South 266 306 13,600  Level New York TRACON
07:56AM 41.0333 -74.4833 159° South 266 306 13,600  Level New York TRACON
07:57AM 40.9500 -74.4500 163° South 266 306 13,600  Level New York TRACON
07:58AM 40.9000 -74.4333 166° South 267 307 13,600  Level New York TRACON
07:59AM 40.8333 -74.4000 159° South 264 304 13,600 -60 Level New York TRACON
08:00AM 40.7500 -74.3667 163° South 266 306 13,500 -660 Descending New York TRACON
08:01AM 40.6833 -74.3333 159° South 287 330 12,300 -1,140 Descending New York TRACON
08:02AM 40.6167 -74.3000 159° South 275 316 11,400 -900 Descending New York TRACON
08:03AM 40.5500 -74.2833 169° South 261 300 10,600 -720 Descending New York TRACON
08:04AM 40.4833 -74.2500 159° South 256 295 10,000 -720 Descending New York TRACON
08:05AM 40.4000 -74.2167 163° South 269 310 9,200 -720 Descending New York TRACON
08:06AM 40.3500 -74.2000 166° South 235 270 8,700 -600 Descending New York TRACON
08:08AM 40.2672 -74.1586 159° South  Level FlightAware Approximate
08:15AM 40.1833 -74.1167 159° South  Level FlightAware Approximate
08:16AM 40.1867 -74.1246 159° South  Level Estimated
08:17AM 40.1833 -74.1167 159° South  Level FlightAware Approximate
08:18AM 40.1867 -74.1246 159° South  Level Estimated
08:19AM 40.1833 -74.1167 159° South  Level FlightAware Approximate
08:20AM 40.1867 -74.1246 159° South  Level Estimated
08:21AM 40.1833 -74.1167 159° South  Level FlightAware Approximate
08:22AM 40.1867 -74.1246 159° South  Level Estimated
08:23AM 40.1833 -74.1167 159° South  Level FlightAware Approximate
08:24AM 40.1867 -74.1246 159° South  Level Estimated
08:25AM 40.1833 -74.1167 159° South  Level FlightAware Approximate
08:26AM 40.1867 -74.1246 159° South  Level Estimated
08:27AM 40.1833 -74.1167 159° South  Level FlightAware Approximate
08:28AM 40.1867 -74.1246 159° South  Level Estimated